Time;durP1;ratioP1;P1;durP2;ratioP2;P2;SDS_P1;SDS_P2;PMS_P1;PMS_P2;Temp;Humidity;BMP_temperature;BMP_pressure;BME280_temperature;BME280_humidity;BME280_pressure;Samples;Min_cycle;Max_cycle;Signal;HPM_P1;HPM_P2
2022/05/11 00:01:01;;;;;;;12.25;6.00;;;;;;;17.46;55.14;100178.38;4976544;28;96740;-81
2022/05/11 00:03:26;;;;;;;10.10;5.78;;;;;;;17.40;54.82;100179.63;4992842;28;97455;-81
2022/05/11 00:05:52;;;;;;;10.80;5.65;;;;;;;17.39;54.76;100177.06;4956309;28;100249;-81
2022/05/11 00:08:18;;;;;;;12.18;6.03;;;;;;;17.33;55.15;100164.19;4972148;28;96724;-81
2022/05/11 00:10:43;;;;;;;12.35;5.97;;;;;;;17.32;54.99;100171.31;4963235;28;97637;-81
2022/05/11 00:13:09;;;;;;;10.85;5.25;;;;;;;17.32;55.52;100167.81;4990887;28;101077;-81
2022/05/11 00:15:35;;;;;;;15.13;6.90;;;;;;;17.14;55.46;100130.91;4975526;28;100574;-81
2022/05/11 00:18:01;;;;;;;10.93;6.53;;;;;;;17.17;55.57;100143.13;4975439;28;96874;-82
2022/05/11 00:20:27;;;;;;;14.38;6.10;;;;;;;17.39;55.15;100163.78;4973043;28;97146;-81
2022/05/11 00:22:57;;;;;;;11.60;6.00;;;;;;;17.15;55.70;100142.38;5005599;28;102188;-81
2022/05/11 00:25:26;;;;;;;13.43;5.75;;;;;;;17.19;55.30;100130.59;4972624;28;97428;-81
2022/05/11 00:27:53;;;;;;;10.82;5.72;;;;;;;17.30;55.60;100148.47;4972808;28;96696;-81
2022/05/11 00:30:19;;;;;;;10.65;5.72;;;;;;;17.24;55.56;100154.19;4950523;28;97320;-81
2022/05/11 00:32:44;;;;;;;10.68;5.93;;;;;;;17.00;56.43;100128.28;4974960;28;100875;-81
2022/05/11 00:35:10;;;;;;;12.23;6.38;;;;;;;17.12;55.74;100139.91;4959103;28;101402;-82
2022/05/11 00:37:35;;;;;;;11.10;5.60;;;;;;;17.02;56.15;100122.91;4958529;28;96760;-81
2022/05/11 00:40:01;;;;;;;10.75;6.15;;;;;;;17.11;55.80;100131.09;4972444;28;97229;-82
2022/05/11 00:42:27;;;;;;;13.02;5.80;;;;;;;17.16;55.97;100142.28;4972337;28;101995;-81
2022/05/11 00:44:55;;;;;;;9.68;5.70;;;;;;;17.13;55.91;100133.63;4972446;28;98331;-81
2022/05/11 00:47:29;;;;;;;9.27;5.75;;;;;;;17.15;56.59;100137.06;4939236;28;96827;-81
2022/05/11 00:50:04;;;;;;;11.13;5.78;;;;;;;17.09;56.51;100143.59;4964281;28;96794;-81
2022/05/11 00:52:36;;;;;;;9.90;6.30;;;;;;;17.20;55.69;100133.16;4975096;28;97920;-81
2022/05/11 00:55:10;;;;;;;8.48;5.43;;;;;;;16.98;55.93;100120.41;4991950;28;101365;-82
2022/05/11 00:57:41;;;;;;;10.57;5.15;;;;;;;16.80;56.14;100096.88;4972023;28;96681;-81
2022/05/11 01:00:13;;;;;;;9.25;5.07;;;;;;;16.91;56.43;100119.13;4990928;28;96825;-81
2022/05/11 01:02:41;;;;;;;;;;;;;;;17.02;56.56;100138.81;4975361;28;101456;-81
2022/05/11 01:05:08;;;;;;;10.30;6.05;;;;;;;16.89;56.50;100138.72;4957795;28;101495;-81
2022/05/11 01:07:35;;;;;;;12.70;5.68;;;;;;;16.93;56.16;100122.53;4959000;28;97570;-81
2022/05/11 01:10:02;;;;;;;8.23;5.88;;;;;;;16.95;56.13;100123.25;4975616;28;97222;-81
2022/05/11 01:12:32;;;;;;;11.20;5.53;;;;;;;17.12;56.25;100134.59;4991579;28;97937;-81
2022/05/11 01:15:00;;;;;;;8.88;5.80;;;;;;;16.93;56.62;100114.56;4959658;28;97189;-81
2022/05/11 01:17:27;;;;;;;8.88;5.65;;;;;;;17.06;56.42;100125.22;4974690;28;96682;-81
2022/05/11 01:19:53;;;;;;;12.52;5.85;;;;;;;17.11;56.19;100120.50;4975611;28;97886;-81
2022/05/11 01:22:31;;;;;;;13.82;6.13;;;;;;;17.14;56.12;100127.41;4992542;28;97996;-81
2022/05/11 01:24:57;;;;;;;11.90;5.85;;;;;;;17.14;56.11;100132.72;4979162;28;97890;-81
2022/05/11 01:27:58;;;;;;;14.85;6.05;;;;;;;17.12;56.12;100124.84;4957653;28;96738;-81
2022/05/11 01:30:24;;;;;;;10.37;5.77;;;;;;;16.90;56.53;100111.25;4972783;28;97141;-81
2022/05/11 01:32:53;;;;;;;9.77;5.32;;;;;;;16.87;56.84;100106.13;4966776;28;101722;-81
2022/05/11 01:35:31;;;;;;;11.68;6.00;;;;;;;16.86;56.46;100073.47;4955010;28;101708;-81
2022/05/11 01:38:12;;;;;;;11.25;5.60;;;;;;;16.94;57.00;100113.63;4979287;28;97326;-81
2022/05/11 01:40:38;;;;;;;12.18;5.03;;;;;;;17.10;56.18;100112.63;4991663;28;97390;-81
2022/05/11 01:43:04;;;;;;;11.57;5.90;;;;;;;16.94;56.53;100110.97;4990926;28;97575;-82
2022/05/11 01:45:29;;;;;;;10.77;5.72;;;;;;;16.80;56.87;100087.13;4957893;28;101214;-81
2022/05/11 01:47:56;;;;;;;10.18;5.88;;;;;;;16.93;56.71;100103.97;4971195;28;96815;-82
2022/05/11 01:50:22;;;;;;;8.82;5.72;;;;;;;16.86;56.60;100102.66;4971104;28;97035;-82
2022/05/11 01:52:47;;;;;;;10.50;6.18;;;;;;;16.98;56.48;100103.66;4952097;28;101808;-81
2022/05/11 01:55:13;;;;;;;8.30;5.30;;;;;;;16.94;57.10;100103.00;5003992;28;97904;-81
2022/05/11 01:57:39;;;;;;;9.70;5.97;;;;;;;16.95;56.58;100103.84;4991276;28;97853;-81
2022/05/11 02:00:06;;;;;;;12.13;5.68;;;;;;;16.90;56.56;100092.69;4973462;28;96917;-82
2022/05/11 02:02:38;;;;;;;11.32;5.30;;;;;;;16.77;56.91;100073.22;4987543;28;98023;-81
2022/05/11 02:07:50;;;;;;;11.73;5.70;;;;;;;17.04;56.63;100091.81;4973578;28;96745;-81
2022/05/11 02:10:22;;;;;;;10.98;6.13;;;;;;;16.88;56.78;100076.91;4957601;28;97301;-81
2022/05/11 02:12:48;;;;;;;9.80;5.55;;;;;;;16.87;56.95;100072.56;4970527;28;101240;-83
2022/05/11 02:15:14;;;;;;;8.43;5.15;;;;;;;16.89;57.12;100067.13;4970577;28;101451;-81
2022/05/11 02:17:41;;;;;;;8.40;5.72;;;;;;;16.74;56.55;100030.03;4966864;28;98293;-81
2022/05/11 02:20:08;;;;;;;7.95;4.95;;;;;;;16.84;56.77;100058.63;4957571;28;96995;-81
2022/05/11 02:22:33;;;;;;;13.32;5.70;;;;;;;16.85;57.05;100069.13;4990339;28;98443;-82
2022/05/11 02:24:59;;;;;;;8.95;5.25;;;;;;;16.75;57.04;100045.00;4974294;28;100875;-81
2022/05/11 02:27:24;;;;;;;11.55;6.32;;;;;;;16.78;57.46;100059.00;4973818;28;96660;-82
2022/05/11 02:29:50;;;;;;;10.93;5.50;;;;;;;16.83;57.43;100071.03;4954525;28;96952;-81
2022/05/11 02:32:15;;;;;;;9.98;6.18;;;;;;;16.67;57.28;100046.44;5004187;28;98059;-81
2022/05/11 02:37:25;;;;;;;8.82;5.30;;;;;;;16.78;57.58;100073.13;4991970;28;96732;-82
2022/05/11 02:39:50;;;;;;;12.38;5.40;;;;;;;16.53;57.69;100047.31;4968195;28;96843;-81
2022/05/11 02:42:18;;;;;;;11.43;6.18;;;;;;;16.69;57.83;100077.16;4971872;28;101520;-82
2022/05/11 02:44:45;;;;;;;16.70;5.88;;;;;;;16.48;58.09;100052.88;4992292;28;97528;-81
2022/05/11 02:47:11;;;;;;;13.38;5.80;;;;;;;16.62;57.60;100078.53;4967424;28;96874;-81
2022/05/11 02:49:37;;;;;;;13.73;6.00;;;;;;;16.55;57.81;100063.09;4982033;28;96839;-81
2022/05/11 02:52:03;;;;;;;13.13;4.82;;;;;;;16.45;57.94;100045.13;4991395;28;101338;-81
2022/05/11 02:54:29;;;;;;;11.60;5.25;;;;;;;16.59;57.93;100054.88;4973737;28;101322;-81
2022/05/11 02:56:54;;;;;;;9.30;5.63;;;;;;;16.53;57.91;100063.19;4991125;28;96883;-81
2022/05/11 02:59:20;;;;;;;10.65;5.65;;;;;;;16.51;57.88;100057.13;4994962;28;96759;-81
2022/05/11 03:01:45;;;;;;;17.15;6.30;;;;;;;16.64;57.65;100060.72;4977219;28;101302;-81
2022/05/11 03:04:11;;;;;;;15.05;5.63;;;;;;;16.62;57.70;100059.97;4976253;28;101947;-81
2022/05/11 03:06:36;;;;;;;9.13;5.40;;;;;;;16.67;57.98;100063.19;4959726;28;98266;-80
2022/05/11 03:09:02;;;;;;;12.20;5.53;;;;;;;16.60;58.19;100074.25;4976614;28;98072;-81
2022/05/11 03:11:28;;;;;;;9.82;5.43;;;;;;;16.71;57.74;100077.09;4993378;28;97783;-81
2022/05/11 03:13:53;;;;;;;10.52;5.95;;;;;;;16.54;58.17;100051.66;4994726;28;97283;-80
2022/05/11 03:16:19;;;;;;;13.80;5.55;;;;;;;16.59;58.25;100078.72;4960620;28;97270;-81
2022/05/11 03:18:44;;;;;;;9.68;5.50;;;;;;;16.57;58.16;100075.28;4959921;28;97221;-81
2022/05/11 03:21:11;;;;;;;14.82;6.45;;;;;;;16.61;58.03;100060.06;4959193;28;101212;-81
2022/05/11 03:23:36;;;;;;;15.80;5.38;;;;;;;16.66;58.14;100074.72;4967389;28;97541;-81
2022/05/11 03:26:02;;;;;;;14.68;5.35;;;;;;;16.60;58.06;100072.44;4989738;28;96786;-81
2022/05/11 03:28:27;;;;;;;13.40;4.95;;;;;;;16.58;58.25;100076.16;4992833;28;97798;-83
2022/05/11 03:30:53;;;;;;;13.73;6.82;;;;;;;16.52;58.41;100064.13;4993336;28;98571;-81
2022/05/11 03:36:03;;;;;;;12.15;6.43;;;;;;;16.55;58.20;100050.72;4993553;28;96990;-83
2022/05/11 03:38:28;;;;;;;20.92;5.53;;;;;;;16.40;58.25;100059.59;4975786;28;98415;-84
2022/05/11 03:40:54;;;;;;;13.55;6.05;;;;;;;16.64;58.54;100075.75;4960171;28;101816;-81
2022/05/11 03:43:19;;;;;;;15.40;5.75;;;;;;;16.62;58.68;100073.22;4959034;28;101302;-81
2022/05/11 03:45:45;;;;;;;13.18;6.28;;;;;;;16.59;58.59;100064.63;4958816;28;96748;-80
2022/05/11 03:48:11;;;;;;;14.02;5.78;;;;;;;16.62;58.64;100081.16;4964269;28;96818;-81
2022/05/11 03:50:38;;;;;;;16.80;5.63;;;;;;;16.65;58.47;100080.97;4973217;28;98494;-81
2022/05/11 03:53:03;;;;;;;18.17;5.28;;;;;;;16.68;58.35;100071.97;4968871;28;97919;-81
2022/05/11 03:55:29;;;;;;;13.75;5.80;;;;;;;16.69;58.21;100068.38;4972967;28;96812;-81
2022/05/11 03:57:55;;;;;;;26.15;6.35;;;;;;;16.74;58.32;100082.19;4992816;28;96958;-81
2022/05/11 04:00:22;;;;;;;16.83;5.75;;;;;;;16.79;58.35;100074.00;4992041;28;97454;-83
2022/05/11 04:02:49;;;;;;;15.00;6.28;;;;;;;16.86;57.99;100064.69;4972419;28;98093;-81
2022/05/11 04:05:15;;;;;;;21.52;6.20;;;;;;;16.85;58.09;100060.34;4956904;28;96775;-81
2022/05/11 04:07:41;;;;;;;13.73;5.47;;;;;;;17.05;58.42;100082.94;4966633;28;98189;-80
2022/05/11 04:10:08;;;;;;;13.38;5.32;;;;;;;17.01;57.89;100065.50;4991801;28;97403;-81
2022/05/11 04:12:35;;;;;;;14.48;5.65;;;;;;;17.19;57.69;100075.78;4991820;28;97797;-81
2022/05/11 04:15:02;;;;;;;14.88;6.35;;;;;;;17.48;57.22;100080.94;4993207;28;96708;-81
2022/05/11 04:17:27;;;;;;;14.15;5.68;;;;;;;17.60;57.01;100080.13;4955692;28;96861;-80
2022/05/11 04:19:53;;;;;;;14.75;5.40;;;;;;;17.77;55.85;100067.50;4971597;28;101588;-81
2022/05/11 04:22:18;;;;;;;20.70;6.30;;;;;;;17.98;56.03;100081.19;4991732;28;101525;-81
2022/05/11 04:24:44;;;;;;;15.38;5.80;;;;;;;17.98;56.07;100070.56;4959397;28;97195;-81
2022/05/11 04:27:10;;;;;;;17.85;6.25;;;;;;;18.28;54.62;100083.50;5001656;28;97054;-80
2022/05/11 04:29:37;;;;;;;15.40;5.88;;;;;;;18.16;53.91;100049.84;4974509;28;101689;-81
2022/05/11 04:32:03;;;;;;;13.65;6.20;;;;;;;18.51;54.25;100066.78;4956072;28;101495;-81
2022/05/11 04:34:28;;;;;;;16.13;6.05;;;;;;;18.78;53.93;100084.41;4954323;28;97306;-81
2022/05/11 04:36:54;;;;;;;11.25;5.63;;;;;;;18.64;53.65;100042.00;4973214;28;97314;-80
2022/05/11 04:39:19;;;;;;;19.17;5.85;;;;;;;18.93;53.30;100063.84;4973562;28;98516;-80
2022/05/11 04:41:45;;;;;;;9.30;5.45;;;;;;;19.22;52.54;100070.53;4972100;28;97511;-81
2022/05/11 04:44:11;;;;;;;10.93;5.78;;;;;;;19.38;51.82;100067.59;4956031;28;97419;-81
2022/05/11 04:46:37;;;;;;;13.80;5.28;;;;;;;19.73;50.89;100071.25;4984213;28;96874;-81
2022/05/11 04:49:23;;;;;;;12.90;4.90;;;;;;;19.84;50.42;100063.31;4954465;28;101409;-81
2022/05/11 04:52:01;;;;;;;12.20;5.70;;;;;;;20.09;50.42;100065.75;4975415;28;101510;-80
2022/05/11 04:54:27;;;;;;;12.05;4.97;;;;;;;20.26;49.77;100058.25;4956354;28;98362;-80
2022/05/11 04:56:52;;;;;;;12.07;5.63;;;;;;;20.47;49.44;100069.03;4974577;28;96786;-80
2022/05/11 04:59:18;;;;;;;15.40;5.10;;;;;;;20.80;48.62;100063.72;4973401;28;98594;-80
2022/05/11 05:01:45;;;;;;;13.63;5.53;;;;;;;21.11;48.08;100068.38;4974479;28;101044;-80
2022/05/11 05:04:10;;;;;;;10.68;4.43;;;;;;;21.23;47.38;100070.03;4972011;28;96830;-80
2022/05/11 05:06:36;;;;;;;12.57;4.10;;;;;;;21.32;47.43;100049.72;4972634;28;96860;-81
2022/05/11 05:09:03;;;;;;;10.32;4.30;;;;;;;21.72;46.99;100081.16;4970237;28;99992;-81
2022/05/11 05:11:30;;;;;;;12.77;4.60;;;;;;;21.89;46.79;100089.41;4952106;28;101423;-81
2022/05/11 05:13:55;;;;;;;16.17;5.28;;;;;;;22.10;46.64;100084.06;4991749;28;96704;-81
2022/05/11 05:16:21;;;;;;;15.27;3.85;;;;;;;22.38;45.56;100081.72;4977228;28;96875;-81
2022/05/11 05:18:46;;;;;;;7.70;3.28;;;;;;;22.63;45.31;100091.13;4970469;28;101668;-81
2022/05/11 05:21:12;;;;;;;7.97;4.22;;;;;;;22.99;44.59;100084.34;4987744;28;101715;-81
2022/05/11 05:23:37;;;;;;;10.98;3.70;;;;;;;23.27;43.72;100076.47;4990901;28;96744;-81
2022/05/11 05:26:03;;;;;;;9.68;3.72;;;;;;;23.59;42.59;100088.75;4975185;28;96941;-81
2022/05/11 05:31:16;;;;;;;9.30;3.92;;;;;;;24.73;40.36;100078.94;4976558;28;101388;-80
2022/05/11 05:33:42;;;;;;;10.35;3.28;;;;;;;25.42;39.22;100089.09;4970649;28;96767;-81
2022/05/11 05:36:09;;;;;;;7.25;3.72;;;;;;;26.88;36.59;100092.97;4970333;28;96930;-81
2022/05/11 05:38:38;;;;;;;10.05;3.33;;;;;;;27.72;35.31;100074.91;4989995;28;97695;-81
2022/05/11 05:41:07;;;;;;;8.63;3.35;;;;;;;28.93;33.75;100073.97;4957601;28;100920;-81
2022/05/11 05:43:33;;;;;;;12.43;3.53;;;;;;;29.68;32.84;100066.06;4964379;28;96844;-83
2022/05/11 05:45:59;;;;;;;9.35;3.38;;;;;;;30.61;31.24;100081.00;4959095;28;97234;-83
2022/05/11 05:48:25;;;;;;;7.25;3.50;;;;;;;31.35;30.03;100072.75;4970196;28;101633;-84
2022/05/11 05:50:50;;;;;;;6.75;3.08;;;;;;;30.96;30.88;100067.72;4955203;28;101671;-84
2022/05/11 05:53:19;;;;;;;10.90;4.60;;;;;;;30.40;31.23;100080.94;4970135;28;96712;-84
2022/05/11 05:55:51;;;;;;;10.57;3.55;;;;;;;31.06;30.13;100073.66;4955414;28;96965;-83
2022/05/11 05:58:17;;;;;;;7.50;3.28;;;;;;;32.78;28.72;100062.50;4970499;28;101139;-84
2022/05/11 06:00:43;;;;;;;5.55;3.75;;;;;;;33.36;27.09;100070.22;4973948;28;101408;-84
2022/05/11 06:03:09;;;;;;;9.35;3.25;;;;;;;33.99;26.66;100057.06;4972141;28;97254;-82
2022/05/11 06:05:35;;;;;;;6.45;3.40;;;;;;;34.22;26.75;100063.97;4956995;28;96986;-82
2022/05/11 06:08:00;;;;;;;7.18;3.30;;;;;;;35.05;25.62;100069.56;4989959;28;98111;-82
2022/05/11 06:10:26;;;;;;;10.20;3.72;;;;;;;35.68;24.40;100067.91;4990569;28;98249;-83
2022/05/11 06:12:52;;;;;;;7.22;3.67;;;;;;;33.38;26.95;100059.16;4995690;28;96806;-82
2022/05/11 06:15:18;;;;;;;6.45;3.78;;;;;;;35.20;25.10;100055.66;4977582;28;96992;-82
2022/05/11 06:17:44;;;;;;;6.00;3.63;;;;;;;35.71;24.67;100067.47;4974951;28;97458;-82
2022/05/11 06:20:11;;;;;;;7.25;3.35;;;;;;;35.11;24.75;100074.16;4977475;28;97178;-82
2022/05/11 06:22:37;;;;;;;4.57;2.78;;;;;;;36.69;23.13;100064.81;4979336;28;96743;-82
2022/05/11 06:25:03;;;;;;;6.88;3.22;;;;;;;37.09;22.67;100063.44;4978156;28;96856;-82
2022/05/11 06:27:29;;;;;;;9.60;3.25;;;;;;;37.46;22.00;100069.63;4978028;28;97875;-82
2022/05/11 06:29:57;;;;;;;4.22;2.80;;;;;;;38.02;21.81;100065.59;4980238;28;101552;-80
2022/05/11 06:32:23;;;;;;;11.45;3.15;;;;;;;38.68;21.87;100073.59;4966726;28;98090;-80
2022/05/11 06:34:49;;;;;;;6.15;3.38;;;;;;;39.35;21.29;100064.75;4980269;28;97267;-80
2022/05/11 06:37:15;;;;;;;4.72;2.65;;;;;;;39.70;20.56;100081.00;4973837;28;101271;-81
2022/05/11 06:39:41;;;;;;;10.07;2.88;;;;;;;37.40;22.37;100073.31;4991993;28;97592;-80
2022/05/11 06:42:12;;;;;;;12.00;2.78;;;;;;;36.48;22.86;100070.72;4954737;28;97155;-81
2022/05/11 06:44:38;;;;;;;5.75;2.80;;;;;;;33.73;25.71;100084.31;4977139;28;96811;-80
2022/05/11 06:47:04;;;;;;;4.60;2.50;;;;;;;33.59;26.23;100078.03;4978855;28;101324;-80
2022/05/11 06:49:31;;;;;;;7.55;3.10;;;;;;;33.78;25.58;100073.66;4970688;28;101433;-81
2022/05/11 06:51:57;;;;;;;7.50;2.90;;;;;;;32.68;27.16;100065.63;4963285;28;96818;-80
2022/05/11 06:59:55;;;;;;;6.22;2.80;;;;;;;32.10;28.30;100075.09;4981454;28;101735;-80
2022/05/11 07:02:21;;;;;;;6.38;3.35;;;;;;;32.06;28.46;100073.78;4978542;28;96943;-81
2022/05/11 07:04:48;;;;;;;6.38;3.15;;;;;;;32.29;27.91;100063.53;4989151;28;97258;-80
2022/05/11 07:07:14;;;;;;;7.68;2.97;;;;;;;32.34;28.23;100074.59;4979274;28;97452;-80
2022/05/11 07:09:40;;;;;;;5.63;3.00;;;;;;;31.41;29.01;100065.72;4994682;28;98124;-81
2022/05/11 07:12:20;;;;;;;10.30;3.38;;;;;;;30.56;30.35;100075.31;4979421;28;96658;-80
2022/05/11 07:14:50;;;;;;;11.35;3.13;;;;;;;30.04;31.14;100076.19;4964596;28;97133;-80
2022/05/11 07:17:34;;;;;;;8.55;3.97;;;;;;;29.72;31.19;100078.19;4978367;28;100884;-80
2022/05/11 07:20:03;;;;;;;7.25;2.85;;;;;;;29.56;31.60;100071.03;4978829;28;100737;-80
2022/05/11 07:22:29;;;;;;;5.20;2.85;;;;;;;29.68;31.51;100073.34;4961810;28;97291;-80
2022/05/11 07:24:54;;;;;;;7.57;3.25;;;;;;;33.80;27.14;100071.53;4974818;28;96904;-80
2022/05/11 07:27:21;;;;;;;5.00;2.92;;;;;;;35.67;24.71;100064.34;4985995;28;101203;-80
2022/05/11 07:29:48;;;;;;;11.32;2.90;;;;;;;35.32;25.52;100069.44;4956448;28;101671;-80
2022/05/11 07:32:14;;;;;;;4.80;3.05;;;;;;;34.90;25.34;100060.81;4976562;28;97138;-81
2022/05/11 07:34:40;;;;;;;4.93;2.90;;;;;;;35.13;25.50;100049.41;4992292;28;96912;-80
2022/05/11 07:37:06;;;;;;;5.65;2.90;;;;;;;35.16;25.60;100059.84;4962456;28;101327;-80
2022/05/11 07:39:32;;;;;;;4.88;3.03;;;;;;;34.65;25.89;100060.75;4974675;28;98356;-81
2022/05/11 07:41:58;;;;;;;4.38;3.10;;;;;;;34.42;26.49;100050.31;4992613;28;96781;-80
2022/05/11 07:44:25;;;;;;;8.40;3.10;;;;;;;33.68;26.85;100052.28;4975575;28;97187;-80
2022/05/11 07:46:51;;;;;;;7.30;3.55;;;;;;;33.40;26.84;100047.03;4992287;28;101278;-80
2022/05/11 07:49:18;;;;;;;10.48;3.00;;;;;;;33.40;27.60;100055.19;4992123;28;97517;-80
2022/05/11 07:51:45;;;;;;;10.38;3.15;;;;;;;34.05;26.70;100041.81;4958618;28;96782;-80
2022/05/11 07:54:12;;;;;;;5.65;3.20;;;;;;;34.95;25.86;100039.19;4981951;28;97744;-80
2022/05/11 08:02:06;;;;;;;6.00;2.60;;;;;;;38.13;22.70;100038.41;4992909;28;96703;-80
2022/05/11 08:04:32;;;;;;;4.00;3.00;;;;;;;39.27;22.21;100045.91;4972142;28;97050;-80
2022/05/11 08:06:58;;;;;;;4.63;2.85;;;;;;;40.00;21.54;100036.72;4990732;28;97637;-80
2022/05/11 08:09:24;;;;;;;5.47;2.55;;;;;;;40.27;20.19;100038.75;4991775;28;97425;-83
2022/05/11 08:11:50;;;;;;;7.82;2.53;;;;;;;39.99;20.84;100043.28;4972818;28;96860;-82
2022/05/11 08:14:17;;;;;;;4.90;2.50;;;;;;;39.83;20.59;100028.50;4989146;28;97346;-82
2022/05/11 08:16:43;;;;;;;5.93;2.40;;;;;;;39.09;21.45;100041.50;4968922;28;97497;-82
2022/05/11 08:19:08;;;;;;;3.72;2.72;;;;;;;37.96;22.64;100049.25;4988406;28;97894;-84
2022/05/11 08:21:34;;;;;;;5.45;2.50;;;;;;;38.13;22.44;100049.38;4955300;28;97324;-84
2022/05/11 08:24:00;;;;;;;5.15;2.90;;;;;;;39.52;21.26;100045.56;4979072;28;96825;-82
2022/05/11 08:26:26;;;;;;;7.82;2.80;;;;;;;41.09;20.25;100035.06;4987365;28;97988;-84
2022/05/11 08:28:52;;;;;;;9.65;3.33;;;;;;;41.42;20.02;100051.59;4946436;28;101063;-84
2022/05/11 08:34:02;;;;;;;6.03;2.85;;;;;;;41.18;19.43;100046.44;4988859;28;96693;-81
2022/05/11 08:36:28;;;;;;;5.88;2.97;;;;;;;41.57;19.44;100046.22;4951708;28;101334;-82
2022/05/11 08:38:56;;;;;;;7.15;3.15;;;;;;;41.93;19.03;100038.25;4966197;28;101436;-86
2022/05/11 08:41:40;;;;;;;3.60;2.80;;;;;;;42.41;18.71;100036.31;4957439;28;96828;-84
2022/05/11 08:44:15;;;;;;;5.15;2.90;;;;;;;42.48;18.06;100034.97;4957981;28;97264;-82
2022/05/11 08:47:02;;;;;;;3.40;2.75;;;;;;;42.11;18.58;100025.97;4973089;28;98216;-85
2022/05/11 08:49:37;;;;;;;8.55;3.45;;;;;;;41.25;19.15;100021.44;4978596;28;101152;-82
2022/05/11 08:52:04;;;;;;;10.27;3.05;;;;;;;39.99;20.70;100023.22;4991553;28;96754;-82
2022/05/11 08:54:31;;;;;;;5.88;2.80;;;;;;;38.78;21.51;100024.44;4954701;28;97420;-82
2022/05/11 08:56:57;;;;;;;5.25;2.88;;;;;;;39.48;21.42;100033.44;4989519;28;98136;-85
2022/05/11 08:59:26;;;;;;;5.18;2.90;;;;;;;41.70;19.33;100018.25;4969139;28;101757;-82
2022/05/11 09:01:58;;;;;;;4.68;2.72;;;;;;;42.05;18.71;100009.38;4970003;28;96762;-83
2022/05/11 09:04:35;;;;;;;5.00;2.70;;;;;;;42.01;18.74;100013.78;4964430;28;97404;-86
2022/05/11 09:07:01;;;;;;;5.70;2.85;;;;;;;39.84;20.57;100021.91;4968687;28;101207;-83
2022/05/11 09:09:27;;;;;;;6.28;2.78;;;;;;;38.82;21.38;100014.63;4952512;28;100864;-86
2022/05/11 09:11:54;;;;;;;4.65;2.75;;;;;;;39.19;21.73;100013.41;4973545;28;97357;-85
2022/05/11 09:14:35;;;;;;;5.30;2.78;;;;;;;39.75;20.11;100015.19;4973778;28;96916;-86
2022/05/11 09:17:01;;;;;;;5.82;2.63;;;;;;;39.01;21.46;100017.19;4969010;28;97977;-82
2022/05/11 09:19:30;;;;;;;12.75;2.70;;;;;;;38.40;23.49;100012.19;4986164;28;97445;-82
2022/05/11 09:22:12;;;;;;;5.93;2.60;;;;;;;37.56;21.91;100008.88;4945394;28;96892;-80
2022/05/11 09:24:48;;;;;;;6.95;2.92;;;;;;;36.70;23.10;100013.69;4989244;28;97374;-84
2022/05/11 09:27:31;;;;;;;3.80;2.67;;;;;;;35.79;23.66;100007.13;4968614;28;100525;-88
2022/05/11 09:30:05;;;;;;;7.75;2.83;;;;;;;35.60;23.50;100007.06;4967996;28;100841;-82
2022/05/11 09:32:42;;;;;;;4.07;2.60;;;;;;;35.41;23.92;100023.63;4971244;28;96803;-82
2022/05/11 09:35:14;;;;;;;4.15;2.63;;;;;;;34.91;23.62;100010.72;4989283;28;96812;-82
2022/05/11 09:37:42;;;;;;;6.07;2.67;;;;;;;34.69;24.45;100010.19;4988841;28;97972;-82
2022/05/11 09:40:17;;;;;;;4.88;2.80;;;;;;;34.87;24.66;100015.75;4987999;28;97842;-85
2022/05/11 09:42:55;;;;;;;6.95;2.53;;;;;;;35.32;23.78;100015.69;4987860;28;96800;-88
2022/05/11 09:45:39;;;;;;;8.60;3.05;;;;;;;35.48;23.31;100005.28;4971398;28;96980;-86
2022/05/11 09:48:30;;;;;;;5.85;2.80;;;;;;;35.88;23.00;99994.84;5010018;28;98545;-85
2022/05/11 09:51:33;;;;;;;5.70;2.42;;;;;;;35.59;23.57;99972.66;4968660;28;101386;-85
2022/05/11 09:54:38;;;;;;;6.47;2.88;;;;;;;34.58;24.69;99995.34;4938829;28;96918;-83
2022/05/11 09:57:05;;;;;;;5.47;2.60;;;;;;;34.04;25.13;99985.69;4990290;28;96903;-89
2022/05/11 09:59:41;;;;;;;2.88;2.50;;;;;;;34.42;24.52;99985.75;4973902;28;101288;-86
2022/05/11 10:02:22;;;;;;;7.90;2.97;;;;;;;33.71;25.49;99986.53;4981298;28;98471;-83
2022/05/11 10:05:08;;;;;;;3.58;2.15;;;;;;;33.22;26.17;99971.50;4974982;28;96851;-83
2022/05/11 10:07:48;;;;;;;6.20;2.28;;;;;;;32.59;26.61;99987.22;4965240;28;98045;-84
2022/05/11 10:10:21;;;;;;;6.07;2.65;;;;;;;32.41;26.88;99974.16;4975891;28;97514;-82
2022/05/11 10:12:47;;;;;;;3.85;2.60;;;;;;;32.01;27.52;99969.38;4986780;28;100129;-83
2022/05/11 10:24:31;;;;;;;3.53;2.60;;;;;;;33.01;27.32;99988.81;4976382;28;101615;-83
2022/05/11 10:27:18;;;;;;;4.05;2.72;;;;;;;33.41;27.26;99990.72;4989305;28;96847;-81
2022/05/11 10:29:50;;;;;;;5.38;2.88;;;;;;;33.48;26.61;99984.25;4985678;28;98209;-82
2022/05/11 10:32:25;;;;;;;8.63;2.97;;;;;;;33.30;26.90;99993.00;4971921;28;97936;-77
2022/05/11 10:35:16;;;;;;;4.32;2.85;;;;;;;32.87;26.57;99979.78;4970310;28;101685;-76
2022/05/11 10:37:50;;;;;;;7.13;2.90;;;;;;;32.85;27.08;99987.28;4970610;28;97528;-77
2022/05/11 10:40:33;;;;;;;4.95;2.70;;;;;;;32.82;27.07;99984.97;4990497;28;96913;-76
2022/05/11 10:42:58;;;;;;;5.38;2.78;;;;;;;32.61;27.17;99987.84;4957122;28;101406;-76
2022/05/11 10:45:30;;;;;;;4.50;2.95;;;;;;;32.45;27.71;99980.91;4990550;28;97536;-77
2022/05/11 10:48:14;;;;;;;7.30;2.72;;;;;;;32.54;27.73;99976.94;4969786;28;96711;-77
2022/05/11 10:50:54;;;;;;;5.50;2.88;;;;;;;32.64;27.79;99979.31;4988392;28;97144;-85
2022/05/11 10:53:43;;;;;;;4.15;2.40;;;;;;;32.43;27.09;99951.16;4980764;28;101306;-82
2022/05/11 10:56:27;;;;;;;9.20;3.42;;;;;;;32.42;27.16;99973.94;4957680;28;101728;-84
2022/05/11 10:59:06;;;;;;;7.72;2.92;;;;;;;32.07;27.98;99956.03;4973731;28;96688;-84
2022/05/11 11:01:40;;;;;;;11.80;3.40;;;;;;;32.19;27.91;99954.44;4976099;28;97140;-84
2022/05/11 11:04:33;;;;;;;6.93;3.72;;;;;;;31.91;28.21;99949.06;4977027;28;97608;-84
2022/05/11 11:07:12;;;;;;;3.72;3.08;;;;;;;32.00;28.60;99964.16;4992648;28;98805;-84
2022/05/11 11:10:10;;;;;;;6.72;3.25;;;;;;;31.87;28.53;99958.63;4958196;28;96742;-83
2022/05/11 11:12:53;;;;;;;5.70;2.85;;;;;;;31.96;28.80;99962.88;4993615;28;96807;-84
2022/05/11 11:15:21;;;;;;;6.70;2.97;;;;;;;32.05;29.07;99953.53;4961703;28;101824;-84
2022/05/11 11:17:47;;;;;;;5.03;2.80;;;;;;;32.06;29.19;99955.22;4973471;28;101024;-83
2022/05/11 11:20:17;;;;;;;7.13;2.85;;;;;;;32.04;28.15;99935.56;4973835;28;96748;-84
2022/05/11 11:23:02;;;;;;;6.40;3.08;;;;;;;32.12;28.46;99953.56;4988318;28;96651;-84
2022/05/11 11:25:55;;;;;;;7.63;2.72;;;;;;;32.28;29.29;99950.50;4993489;28;97629;-84
2022/05/11 11:28:23;;;;;;;5.97;2.60;;;;;;;32.22;28.84;99927.72;4992180;28;101887;-84
2022/05/11 11:30:58;;;;;;;2.70;2.28;;;;;;;32.14;27.70;99937.91;4959524;28;97241;-84
2022/05/11 11:33:25;;;;;;;4.38;2.63;;;;;;;31.76;28.65;99933.69;4976460;28;96826;-84
2022/05/11 11:35:57;;;;;;;4.45;2.70;;;;;;;31.72;29.14;99942.47;4992550;28;101537;-84
2022/05/11 11:38:30;;;;;;;8.45;2.47;;;;;;;31.87;29.18;99932.31;4992120;28;101146;-84
2022/05/11 11:41:28;;;;;;;8.23;3.03;;;;;;;31.98;29.65;99936.38;4992958;28;96762;-84
2022/05/11 11:44:04;;;;;;;7.45;2.83;;;;;;;32.04;29.51;99932.03;4975886;28;97086;-84
2022/05/11 11:46:30;;;;;;;4.82;2.70;;;;;;;32.14;28.35;99927.03;4972833;28;98561;-84
2022/05/11 11:49:18;;;;;;;4.30;2.60;;;;;;;31.70;29.31;99915.50;4969795;28;101619;-84
2022/05/11 11:52:16;;;;;;;4.43;2.65;;;;;;;31.75;29.02;99920.34;4987319;28;97179;-83
2022/05/11 11:54:42;;;;;;;5.45;2.95;;;;;;;31.51;29.16;99924.38;4976436;28;96831;-84
2022/05/11 11:57:23;;;;;;;3.92;2.55;;;;;;;31.72;29.60;99923.47;4991747;28;101323;-84
2022/05/11 11:59:51;;;;;;;7.20;2.88;;;;;;;31.69;29.83;99924.69;4992068;28;101686;-84
2022/05/11 12:02:36;;;;;;;6.05;2.75;;;;;;;31.63;28.56;99903.78;4992153;28;96785;-84
2022/05/11 12:05:25;;;;;;;3.42;2.33;;;;;;;31.47;28.70;99914.94;4993048;28;96813;-83
2022/05/11 12:16:43;;;;;;;7.35;3.08;;;;;;;31.04;29.30;99906.84;4977893;28;97331;-84